Terminal Aerodrome Forecast
Issued by NWS Wichita, KS

Home | Current Version | Previous Version | Graphics & Text | Print | Product List | Glossary On
Versions: 1 2 3 4 5 6 7 8 9 10 11 12 13 14 15 16 17 18 19 20 21 22 23
000
FTUS43 KICT 262300
TAFICT
TAF
KICT 262338Z 2700/2724 13008KT P6SM SCT070 BKN150 OVC250
     FM270900 16007KT P6SM SCT250
     FM271500 18012G17KT P6SM FEW250=

USA.gov is the U.S. government's official web portal to all federal, state and local government web resources and services.